Terminal Aerodrome Forecast
Issued by NWS

Home | Current Version | Previous Version | Text Only | Print | Product List | Glossary On
Versions: 1 2 3 4 5 6 7 8 9 10 11 12 13 14 15 16 17 18
000
FTUS46 KSEW 022332
TAFBLI
TAF
KBLI 022332Z 0300/0324 15019G28KT P6SM -RA OVC022
     FM030100 17011KT P6SM VCSH BKN025 BKN040
     FM030300 19005KT P6SM SCT025 SCT050
     FM031000 18005KT P6SM SCT025 OVC050
     FM032000 16013G20KT P6SM BKN025 OVC035=

USA.gov is the U.S. government's official web portal to all federal, state and local government web resources and services.